Time;durP1;ratioP1;P1;durP2;ratioP2;P2;SDS_P1;SDS_P2;PMS_P1;PMS_P2;Temp;Humidity;BMP_temperature;BMP_pressure;BME280_temperature;BME280_humidity;BME280_pressure;Samples;Min_cycle;Max_cycle;Signal;HPM_P1;HPM_P2
2023/04/24 00:04:10;;;;;;;23.98;9.32;;;;;;;;;;12976479;19;20018;-63
2023/04/24 00:08:28;;;;;;;22.98;9.75;;;;;;;;;;12976276;19;20031;-61
2023/04/24 00:12:46;;;;;;;23.17;8.98;;;;;;;;;;12978185;19;20077;-61
2023/04/24 00:17:04;;;;;;;22.10;8.73;;;;;;;;;;12987412;19;20011;-62
2023/04/24 00:21:25;;;;;;;21.60;8.93;;;;;;;;;;12988333;19;20386;-62
2023/04/24 00:25:43;;;;;;;22.98;8.77;;;;;;;;;;12987725;19;20828;-62
2023/04/24 00:30:01;;;;;;;16.48;7.72;;;;;;;;;;12986882;19;20015;-63
2023/04/24 00:34:19;;;;;;;;;;;;;;;;;;12966090;19;20476;-63
2023/04/24 00:38:36;;;;;;;18.13;8.25;;;;;;;;;;12987589;19;19915;-63
2023/04/24 00:42:54;;;;;;;17.00;7.88;;;;;;;;;;12987566;19;20010;-62
2023/04/24 00:47:12;;;;;;;16.88;8.18;;;;;;;;;;12987583;19;20014;-63
2023/04/24 00:51:32;;;;;;;16.05;8.68;;;;;;;;;;12987283;19;20500;-63
2023/04/24 00:55:51;;;;;;;11.80;6.80;;;;;;;;;;12986871;19;20134;-62
2023/04/24 01:00:12;;;;;;;13.98;7.38;;;;;;;;;;12982983;19;20031;-63
2023/04/24 01:04:30;;;;;;;13.57;7.40;;;;;;;;;;12990646;19;20351;-63
2023/04/24 01:08:49;;;;;;;16.13;8.20;;;;;;;;;;12986417;19;20082;-62
2023/04/24 01:13:08;;;;;;;14.43;7.18;;;;;;;;;;12985535;19;20022;-63
2023/04/24 01:17:26;;;;;;;15.30;7.03;;;;;;;;;;12986706;19;20778;-63
2023/04/24 01:21:47;;;;;;;12.68;7.13;;;;;;;;;;12986554;19;20027;-62
2023/04/24 01:26:05;;;;;;;12.50;7.07;;;;;;;;;;12982619;19;20026;-62
2023/04/24 01:30:22;;;;;;;16.95;6.93;;;;;;;;;;12984985;19;20034;-62
2023/04/24 01:34:41;;;;;;;12.32;6.35;;;;;;;;;;12985132;19;20892;-62
2023/04/24 01:39:00;;;;;;;11.98;6.45;;;;;;;;;;12982759;19;20034;-62
2023/04/24 01:43:18;;;;;;;12.45;6.55;;;;;;;;;;12983372;19;20437;-62
2023/04/24 01:47:36;;;;;;;13.38;6.90;;;;;;;;;;12983141;19;20533;-62
2023/04/24 01:51:54;;;;;;;;;;;;;;;;;;12983612;19;20022;-62
2023/04/24 01:56:12;;;;;;;12.82;6.88;;;;;;;;;;12982395;19;20024;-62
2023/04/24 02:00:30;;;;;;;9.60;5.53;;;;;;;;;;12982729;19;20533;-62
2023/04/24 02:04:47;;;;;;;13.45;5.50;;;;;;;;;;12982620;19;20469;-62
2023/04/24 02:09:05;;;;;;;10.50;5.78;;;;;;;;;;12981528;19;20010;-62
2023/04/24 02:13:23;;;;;;;12.63;5.82;;;;;;;;;;12981911;19;20031;-62
2023/04/24 02:17:40;;;;;;;10.48;6.13;;;;;;;;;;12981602;19;20027;-62
2023/04/24 02:21:58;;;;;;;10.73;5.53;;;;;;;;;;12982106;19;20018;-62
2023/04/24 02:26:16;;;;;;;11.27;5.32;;;;;;;;;;12980521;19;20121;-62
2023/04/24 02:30:34;;;;;;;8.95;5.22;;;;;;;;;;12980227;19;20018;-62
2023/04/24 02:34:51;;;;;;;8.93;5.22;;;;;;;;;;12980082;19;20022;-62
2023/04/24 02:39:09;;;;;;;10.07;5.20;;;;;;;;;;12978515;19;20086;-62
2023/04/24 02:43:27;;;;;;;7.57;4.65;;;;;;;;;;12979879;19;20129;-62
2023/04/24 02:47:45;;;;;;;8.05;5.10;;;;;;;;;;12979970;19;20066;-62
2023/04/24 02:52:02;;;;;;;9.73;4.60;;;;;;;;;;12979573;19;20014;-62
2023/04/24 02:56:20;;;;;;;7.60;4.72;;;;;;;;;;12980360;19;20018;-62
2023/04/24 03:00:39;;;;;;;11.35;5.55;;;;;;;;;;12979517;19;20010;-62
2023/04/24 03:04:57;;;;;;;7.75;4.60;;;;;;;;;;12980254;19;20062;-62
2023/04/24 03:09:14;;;;;;;20.13;5.82;;;;;;;;;;12978433;19;20027;-62
2023/04/24 03:13:32;;;;;;;6.90;4.65;;;;;;;;;;12978957;19;20022;-62
2023/04/24 03:17:50;;;;;;;15.75;5.40;;;;;;;;;;12978705;19;20018;-62
2023/04/24 03:22:09;;;;;;;13.43;5.05;;;;;;;;;;12977307;19;20024;-62
2023/04/24 03:26:26;;;;;;;11.80;5.43;;;;;;;;;;12978020;19;20022;-62
2023/04/24 03:30:44;;;;;;;10.60;5.28;;;;;;;;;;12977415;19;20633;-62
2023/04/24 03:35:03;;;;;;;15.20;7.95;;;;;;;;;;12977015;19;20031;-62
2023/04/24 03:39:21;;;;;;;19.85;9.25;;;;;;;;;;12976882;19;20165;-62
2023/04/24 03:43:39;;;;;;;28.45;11.00;;;;;;;;;;12977568;19;20029;-62
2023/04/24 03:47:56;;;;;;;11.98;6.03;;;;;;;;;;12975611;19;20018;-62
2023/04/24 03:52:14;;;;;;;19.75;6.25;;;;;;;;;;12977366;19;20018;-62
2023/04/24 03:56:31;;;;;;;10.45;4.80;;;;;;;;;;12975071;19;20015;-62
2023/04/24 04:00:50;;;;;;;8.45;4.60;;;;;;;;;;12976411;19;20011;-62
2023/04/24 04:05:08;;;;;;;9.82;4.85;;;;;;;;;;12975382;19;20014;-63
2023/04/24 04:09:25;;;;;;;16.02;5.10;;;;;;;;;;12975301;19;20562;-62
2023/04/24 04:13:43;;;;;;;11.15;4.80;;;;;;;;;;12975830;19;20611;-62
2023/04/24 04:18:01;;;;;;;8.93;3.95;;;;;;;;;;12976086;19;20018;-62
2023/04/24 04:22:18;;;;;;;5.47;3.50;;;;;;;;;;12976948;19;20031;-62
2023/04/24 04:26:37;;;;;;;7.82;3.95;;;;;;;;;;12975758;19;20810;-62
2023/04/24 04:30:55;;;;;;;11.45;4.07;;;;;;;;;;12973044;19;20044;-62
2023/04/24 04:35:12;;;;;;;;;;;;;;;;;;12975537;19;20486;-63
2023/04/24 04:39:31;;;;;;;7.15;3.90;;;;;;;;;;12974246;19;19942;-62
2023/04/24 04:43:48;;;;;;;11.35;4.22;;;;;;;;;;12975464;19;20789;-62
2023/04/24 04:48:07;;;;;;;9.63;3.63;;;;;;;;;;12973463;19;20078;-64
2023/04/24 04:52:25;;;;;;;6.43;3.88;;;;;;;;;;12974569;19;20056;-62
2023/04/24 04:56:43;;;;;;;7.07;3.28;;;;;;;;;;12975001;19;20022;-62
2023/04/24 05:01:01;;;;;;;5.30;3.40;;;;;;;;;;12979924;19;20079;-62
2023/04/24 05:05:19;;;;;;;5.25;3.10;;;;;;;;;;12986919;19;20022;-63
2023/04/24 05:09:37;;;;;;;4.72;2.88;;;;;;;;;;12987095;19;20018;-62
2023/04/24 05:13:55;;;;;;;4.43;2.65;;;;;;;;;;12986861;19;20133;-62
2023/04/24 05:18:12;;;;;;;;;;;;;;;;;;12985855;19;20018;-62
2023/04/24 05:22:31;;;;;;;4.13;2.72;;;;;;;;;;12986171;19;20714;-62
2023/04/24 05:26:51;;;;;;;4.32;2.50;;;;;;;;;;12986468;19;20015;-62
2023/04/24 05:31:09;;;;;;;4.80;3.00;;;;;;;;;;12984761;19;20396;-62
2023/04/24 05:35:27;;;;;;;;;;;;;;;;;;12964520;19;20082;-62
2023/04/24 05:39:44;;;;;;;3.72;2.65;;;;;;;;;;12984761;19;20311;-62
2023/04/24 05:44:02;;;;;;;5.43;2.97;;;;;;;;;;12984417;19;20117;-63
2023/04/24 05:48:21;;;;;;;4.40;2.72;;;;;;;;;;12983936;19;20031;-63
2023/04/24 05:52:39;;;;;;;6.43;2.30;;;;;;;;;;12984563;19;20018;-62
2023/04/24 05:56:57;;;;;;;;;;;;;;;;;;12984965;19;20032;-63
2023/04/24 06:01:14;;;;;;;4.10;2.38;;;;;;;;;;12983233;19;19922;-63
2023/04/24 06:05:32;;;;;;;4.40;1.77;;;;;;;;;;12983751;19;20085;-62
2023/04/24 06:09:50;;;;;;;2.58;2.20;;;;;;;;;;12983623;19;20424;-63
2023/04/24 06:14:07;;;;;;;3.55;2.35;;;;;;;;;;12982611;19;20018;-63
2023/04/24 06:18:25;;;;;;;4.75;2.42;;;;;;;;;;12983656;19;20018;-63
2023/04/24 06:22:43;;;;;;;4.05;2.92;;;;;;;;;;12967203;19;20022;-63
2023/04/24 06:27:01;;;;;;;;;;;;;;;;;;12941137;19;20023;-63
2023/04/24 06:31:22;;;;;;;5.65;2.92;;;;;;;;;;12979518;19;20348;-63
2023/04/24 06:35:42;;;;;;;4.78;2.75;;;;;;;;;;12981287;19;20412;-63
2023/04/24 06:40:01;;;;;;;3.10;2.17;;;;;;;;;;12980128;19;20034;-63
2023/04/24 06:44:22;;;;;;;6.00;2.22;;;;;;;;;;12980941;19;20469;-62
2023/04/24 06:48:40;;;;;;;4.38;2.38;;;;;;;;;;12977507;19;20034;-63
2023/04/24 06:52:57;;;;;;;4.72;2.58;;;;;;;;;;12980559;19;20380;-63
2023/04/24 06:57:18;;;;;;;;;;;;;;;;;;12981267;19;20512;-63
2023/04/24 07:01:36;;;;;;;2.22;1.80;;;;;;;;;;12981504;19;19915;-63
2023/04/24 07:05:54;;;;;;;;;;;;;;;;;;12979665;19;20419;-63
2023/04/24 07:10:15;;;;;;;3.22;1.92;;;;;;;;;;12978258;19;19931;-63
2023/04/24 07:14:33;;;;;;;3.00;1.90;;;;;;;;;;12979197;19;20082;-63
2023/04/24 07:18:51;;;;;;;2.08;1.80;;;;;;;;;;12978562;19;20085;-63
2023/04/24 07:23:09;;;;;;;3.92;1.90;;;;;;;;;;12975968;19;20018;-63
2023/04/24 07:27:26;;;;;;;3.33;1.90;;;;;;;;;;12978749;19;20074;-63
2023/04/24 07:31:47;;;;;;;2.83;1.90;;;;;;;;;;12977260;19;20018;-66
2023/04/24 07:36:05;;;;;;;3.08;1.60;;;;;;;;;;12976798;19;20089;-61
2023/04/24 07:40:23;;;;;;;;;;;;;;;;;;12954564;19;20359;-62
2023/04/24 07:44:45;;;;;;;3.08;2.00;;;;;;;;;;12977284;19;20279;-65
2023/04/24 07:49:04;;;;;;;34.30;5.40;;;;;;;;;;12975594;19;20077;-64
2023/04/24 07:53:30;;;;;;;3.33;1.98;;;;;;;;;;12976453;19;20478;-64
2023/04/24 07:57:51;;;;;;;2.13;1.83;;;;;;;;;;12976034;19;20046;-64
2023/04/24 08:02:09;;;;;;;2.75;1.92;;;;;;;;;;12973992;19;20070;-64
2023/04/24 08:06:30;;;;;;;3.30;1.75;;;;;;;;;;12975917;19;20055;-64
2023/04/24 08:10:48;;;;;;;5.32;1.80;;;;;;;;;;12975191;19;20014;-64
2023/04/24 08:15:06;;;;;;;3.35;1.80;;;;;;;;;;12975451;19;20014;-63
2023/04/24 08:19:25;;;;;;;3.88;2.20;;;;;;;;;;12975414;19;20035;-63
2023/04/24 08:23:43;;;;;;;3.47;1.90;;;;;;;;;;12976111;19;20035;-64
2023/04/24 08:28:06;;;;;;;5.25;2.15;;;;;;;;;;12975471;19;20027;-63
2023/04/24 08:32:24;;;;;;;2.30;1.63;;;;;;;;;;12974429;19;20022;-63
2023/04/24 08:36:42;;;;;;;2.53;1.52;;;;;;;;;;12986010;19;20480;-63
2023/04/24 08:41:04;;;;;;;4.55;2.10;;;;;;;;;;12986472;19;20118;-63
2023/04/24 08:45:23;;;;;;;3.95;1.92;;;;;;;;;;12988147;19;20070;-63
2023/04/24 08:49:42;;;;;;;3.25;1.77;;;;;;;;;;12986365;19;20023;-63
2023/04/24 08:54:02;;;;;;;2.95;1.80;;;;;;;;;;12987279;19;20023;-63
2023/04/24 08:58:20;;;;;;;3.97;2.00;;;;;;;;;;12987150;19;20934;-63
2023/04/24 09:02:43;;;;;;;2.72;1.65;;;;;;;;;;12987474;19;20086;-64
2023/04/24 09:07:03;;;;;;;2.45;1.50;;;;;;;;;;12986490;19;20011;-64
2023/04/24 09:11:21;;;;;;;8.15;2.05;;;;;;;;;;12985942;19;20032;-63
2023/04/24 09:15:41;;;;;;;2.78;1.30;;;;;;;;;;12985887;19;20056;-63
2023/04/24 09:19:58;;;;;;;2.20;1.70;;;;;;;;;;12985616;19;20027;-63
2023/04/24 09:24:20;;;;;;;4.75;1.60;;;;;;;;;;12984627;19;20014;-64
2023/04/24 09:28:40;;;;;;;2.83;1.55;;;;;;;;;;12986639;19;20502;-64
2023/04/24 09:33:14;;;;;;;4.05;2.15;;;;;;;;;;12984477;19;20505;-64
2023/04/24 09:37:49;;;;;;;2.38;1.70;;;;;;;;;;12982263;19;20006;-64
2023/04/24 09:42:07;;;;;;;2.55;2.00;;;;;;;;;;12983539;19;20048;-64
2023/04/24 09:46:31;;;;;;;3.08;1.80;;;;;;;;;;12981123;19;20533;-64
2023/04/24 09:50:52;;;;;;;1.52;1.35;;;;;;;;;;12982857;19;20117;-63
2023/04/24 09:55:18;;;;;;;3.22;1.42;;;;;;;;;;12983267;19;20121;-64
2023/04/24 09:59:43;;;;;;;4.35;2.10;;;;;;;;;;12981532;19;20050;-63
2023/04/24 10:04:02;;;;;;;2.13;1.38;;;;;;;;;;12981711;19;20024;-65
2023/04/24 10:08:21;;;;;;;3.20;1.70;;;;;;;;;;12983234;19;20529;-63
2023/04/24 10:12:39;;;;;;;3.67;1.98;;;;;;;;;;12983117;19;20035;-63
2023/04/24 10:16:58;;;;;;;3.63;2.20;;;;;;;;;;12983781;19;20022;-63
2023/04/24 10:21:17;;;;;;;2.05;1.40;;;;;;;;;;12982262;19;20035;-63
2023/04/24 10:25:36;;;;;;;7.00;2.00;;;;;;;;;;12982312;19;20022;-63
2023/04/24 10:29:55;;;;;;;2.40;1.65;;;;;;;;;;12981092;19;20094;-63
2023/04/24 10:34:16;;;;;;;2.60;1.75;;;;;;;;;;12979322;19;20006;-64
2023/04/24 10:38:35;;;;;;;2.58;1.50;;;;;;;;;;12981497;19;20010;-64
2023/04/24 10:42:53;;;;;;;3.28;1.67;;;;;;;;;;12980523;19;20098;-63
2023/04/24 10:47:14;;;;;;;2.97;1.70;;;;;;;;;;12984009;19;20343;-64
2023/04/24 10:51:52;;;;;;;3.40;1.58;;;;;;;;;;12984403;19;20039;-63
2023/04/24 10:56:10;;;;;;;3.40;1.95;;;;;;;;;;12982696;19;20018;-64
2023/04/24 11:00:28;;;;;;;3.00;1.73;;;;;;;;;;12982564;19;20009;-63
2023/04/24 11:04:46;;;;;;;;;;;;;;;;;;12984816;19;20015;-64
2023/04/24 11:09:09;;;;;;;2.17;1.65;;;;;;;;;;12983332;19;19918;-63
2023/04/24 11:13:53;;;;;;;4.40;2.00;;;;;;;;;;12983735;19;20372;-63
2023/04/24 11:18:15;;;;;;;4.13;2.25;;;;;;;;;;12983055;19;20481;-64
2023/04/24 11:22:35;;;;;;;3.60;1.98;;;;;;;;;;12983148;19;20047;-64
2023/04/24 11:27:19;;;;;;;3.05;1.33;;;;;;;;;;12983617;19;20326;-63
2023/04/24 11:31:41;;;;;;;2.55;1.70;;;;;;;;;;12982456;19;20050;-63
2023/04/24 11:35:59;;;;;;;2.50;1.65;;;;;;;;;;12983035;19;20024;-64
2023/04/24 11:40:22;;;;;;;;;;;;;;;;;;12981131;19;20478;-64
2023/04/24 11:44:42;;;;;;;2.50;1.67;;;;;;;;;;12982719;19;19948;-64
2023/04/24 11:49:00;;;;;;;4.03;1.77;;;;;;;;;;12980041;19;20521;-63
2023/04/24 11:53:21;;;;;;;5.18;2.35;;;;;;;;;;12980856;19;20478;-64
2023/04/24 11:57:39;;;;;;;3.08;1.88;;;;;;;;;;12980635;19;20018;-64
2023/04/24 12:01:56;;;;;;;1.90;1.33;;;;;;;;;;12981062;19;20015;-63
2023/04/24 12:06:14;;;;;;;6.13;2.20;;;;;;;;;;12980487;19;20021;-64
2023/04/24 12:10:33;;;;;;;2.75;1.75;;;;;;;;;;12987772;19;20010;-63
2023/04/24 12:14:58;;;;;;;2.38;1.50;;;;;;;;;;12994301;19;20010;-63
2023/04/24 12:19:22;;;;;;;2.60;1.60;;;;;;;;;;12992155;19;20019;-63
2023/04/24 12:23:46;;;;;;;4.35;2.08;;;;;;;;;;12993534;19;20018;-63
2023/04/24 12:28:03;;;;;;;4.53;2.13;;;;;;;;;;12990327;19;20018;-63
2023/04/24 12:32:20;;;;;;;10.13;2.75;;;;;;;;;;12992435;19;20011;-64
2023/04/24 12:36:38;;;;;;;;;;;;;;;;;;12993848;19;20036;-63
2023/04/24 12:41:22;;;;;;;3.92;2.53;;;;;;;;;;12992517;19;19919;-63
2023/04/24 12:45:39;;;;;;;8.10;2.67;;;;;;;;;;12992135;19;20469;-63
2023/04/24 12:49:58;;;;;;;5.10;2.30;;;;;;;;;;12991608;19;20327;-63
2023/04/24 12:54:15;;;;;;;9.20;2.60;;;;;;;;;;12991727;19;20018;-63
2023/04/24 12:58:33;;;;;;;9.82;3.63;;;;;;;;;;12992256;19;20031;-63
2023/04/24 13:02:51;;;;;;;9.18;2.30;;;;;;;;;;12991278;19;20018;-63
2023/04/24 13:07:09;;;;;;;8.52;2.75;;;;;;;;;;12990520;19;20018;-63
2023/04/24 13:11:27;;;;;;;12.45;3.67;;;;;;;;;;12989916;19;20022;-63
2023/04/24 13:15:45;;;;;;;5.95;2.30;;;;;;;;;;12990778;19;20025;-63
2023/04/24 13:20:03;;;;;;;;;;;;;;;;;;12988069;19;20018;-64
2023/04/24 13:24:25;;;;;;;10.52;2.80;;;;;;;;;;12990603;19;19939;-63
2023/04/24 13:28:43;;;;;;;18.10;3.70;;;;;;;;;;12991277;19;20021;-63
2023/04/24 13:33:01;;;;;;;4.00;2.38;;;;;;;;;;12989537;19;20438;-67
2023/04/24 13:37:19;;;;;;;9.65;2.88;;;;;;;;;;12989946;19;20034;-63
2023/04/24 13:41:36;;;;;;;16.30;2.67;;;;;;;;;;12989116;19;20018;-63
2023/04/24 13:45:54;;;;;;;10.63;2.88;;;;;;;;;;12987574;19;20469;-63
2023/04/24 13:50:12;;;;;;;5.45;2.50;;;;;;;;;;12988007;19;20010;-63
2023/04/24 13:54:30;;;;;;;3.85;1.98;;;;;;;;;;12988844;19;20042;-63
2023/04/24 13:58:48;;;;;;;5.88;2.25;;;;;;;;;;12986228;19;20022;-63
2023/04/24 14:03:06;;;;;;;5.93;2.92;;;;;;;;;;12987402;19;20038;-64
2023/04/24 14:07:24;;;;;;;8.27;4.18;;;;;;;;;;12988146;19;20010;-63
2023/04/24 14:11:42;;;;;;;4.18;2.65;;;;;;;;;;12987371;19;20007;-63
2023/04/24 14:15:59;;;;;;;5.05;2.10;;;;;;;;;;12986324;19;20477;-63
2023/04/24 14:20:17;;;;;;;2.75;2.03;;;;;;;;;;12987608;19;20022;-64
2023/04/24 14:24:36;;;;;;;;;;;;;;;;;;12988699;19;20010;-63
2023/04/24 14:28:53;;;;;;;;;;;;;;;;;;12987835;19;19936;-62
2023/04/24 14:33:27;;;;;;;8.10;2.78;;;;;;;;;;12985915;19;20208;-63
2023/04/24 14:37:45;;;;;;;3.65;2.40;;;;;;;;;;12986469;19;20018;-63
2023/04/24 14:42:03;;;;;;;4.97;2.90;;;;;;;;;;12985624;19;20477;-64
2023/04/24 14:46:20;;;;;;;6.28;2.95;;;;;;;;;;12986083;19;20022;-63
2023/04/24 14:50:37;;;;;;;4.13;1.90;;;;;;;;;;12983382;19;20025;-63
2023/04/24 14:54:55;;;;;;;;;;;;;;;;;;12986613;19;20021;-63
2023/04/24 14:59:14;;;;;;;5.35;2.00;;;;;;;;;;12985382;19;20205;-63
2023/04/24 15:03:32;;;;;;;4.85;3.08;;;;;;;;;;12985675;19;20014;-63
2023/04/24 15:07:50;;;;;;;5.00;4.32;;;;;;;;;;12985386;19;20029;-63
2023/04/24 15:12:09;;;;;;;4.40;2.05;;;;;;;;;;12984682;19;20367;-63
2023/04/24 15:16:27;;;;;;;2.00;1.40;;;;;;;;;;12983271;19;20387;-63
2023/04/24 15:20:45;;;;;;;;;;;;;;;;;;12984993;19;20030;-62
2023/04/24 15:25:05;;;;;;;2.08;1.45;;;;;;;;;;12983753;19;19934;-63
2023/04/24 15:29:23;;;;;;;8.40;5.60;;;;;;;;;;12983442;19;20038;-62
2023/04/24 15:33:40;;;;;;;8.52;3.72;;;;;;;;;;12983046;19;20018;-63
2023/04/24 15:37:58;;;;;;;;;;;;;;;;;;12983865;19;20461;-62
2023/04/24 15:42:16;;;;;;;3.33;1.67;;;;;;;;;;12981095;19;19922;-62
2023/04/24 15:46:35;;;;;;;3.17;2.35;;;;;;;;;;12981326;19;20018;-63
2023/04/24 15:50:54;;;;;;;7.25;2.70;;;;;;;;;;12983681;19;20014;-62
2023/04/24 15:55:12;;;;;;;;;;;;;;;;;;12982333;19;20015;-63
2023/04/24 15:59:30;;;;;;;10.52;4.38;;;;;;;;;;12981823;19;20338;-63
2023/04/24 16:03:47;;;;;;;3.75;2.63;;;;;;;;;;12979559;19;20319;-62
2023/04/24 16:08:06;;;;;;;12.32;8.15;;;;;;;;;;12980156;19;20022;-62
2023/04/24 16:12:26;;;;;;;7.50;3.15;;;;;;;;;;12979766;19;20015;-62
2023/04/24 16:16:47;;;;;;;4.57;2.42;;;;;;;;;;12980345;19;20056;-62
2023/04/24 16:21:05;;;;;;;4.93;2.95;;;;;;;;;;12977883;19;20010;-62
2023/04/24 16:25:27;;;;;;;3.20;1.58;;;;;;;;;;12980596;19;20014;-62
2023/04/24 16:29:45;;;;;;;3.35;1.95;;;;;;;;;;12979111;19;20025;-63
2023/04/24 16:34:03;;;;;;;10.10;3.83;;;;;;;;;;12956111;19;20115;-62
2023/04/24 16:38:23;;;;;;;3.40;2.30;;;;;;;;;;12979360;19;20094;-62
2023/04/24 16:42:40;;;;;;;3.03;2.03;;;;;;;;;;12978769;19;20043;-62
2023/04/24 16:46:58;;;;;;;7.65;6.45;;;;;;;;;;12979198;19;20021;-62
2023/04/24 16:51:16;;;;;;;8.30;5.85;;;;;;;;;;12975880;19;20019;-62
2023/04/24 16:55:35;;;;;;;12.13;6.88;;;;;;;;;;12982768;19;20037;-62
2023/04/24 16:59:55;;;;;;;4.35;2.35;;;;;;;;;;12969783;19;20025;-62
2023/04/24 17:04:13;;;;;;;14.25;6.65;;;;;;;;;;12988851;19;20018;-62
2023/04/24 17:08:31;;;;;;;7.22;3.33;;;;;;;;;;12990517;19;20025;-62
2023/04/24 17:12:52;;;;;;;3.40;2.50;;;;;;;;;;12989067;19;20017;-61
2023/04/24 17:17:10;;;;;;;7.07;4.30;;;;;;;;;;12967622;19;20376;-61
2023/04/24 17:21:28;;;;;;;8.00;4.47;;;;;;;;;;12988540;19;20015;-61
2023/04/24 17:25:46;;;;;;;7.28;3.72;;;;;;;;;;12988472;19;20450;-61
2023/04/24 17:30:04;;;;;;;8.20;5.30;;;;;;;;;;12988761;19;20018;-61
2023/04/24 17:34:22;;;;;;;9.27;6.03;;;;;;;;;;12986592;19;20613;-61
2023/04/24 17:38:40;;;;;;;6.97;4.72;;;;;;;;;;12988951;19;20011;-62
2023/04/24 17:43:02;;;;;;;13.23;5.22;;;;;;;;;;12986967;19;20022;-61
2023/04/24 17:47:21;;;;;;;23.55;10.25;;;;;;;;;;12988731;19;20015;-61
2023/04/24 17:51:40;;;;;;;15.88;7.18;;;;;;;;;;12987612;19;20078;-61
2023/04/24 17:56:01;;;;;;;11.55;6.53;;;;;;;;;;12987845;19;20023;-62
2023/04/24 18:00:18;;;;;;;5.07;2.85;;;;;;;;;;12985816;19;20031;-62
2023/04/24 18:04:37;;;;;;;23.92;11.80;;;;;;;;;;12987621;19;20019;-62
2023/04/24 18:08:55;;;;;;;7.45;4.55;;;;;;;;;;12986719;19;20030;-62
2023/04/24 18:13:13;;;;;;;19.25;6.93;;;;;;;;;;12987680;19;20024;-62
2023/04/24 18:17:31;;;;;;;19.33;11.02;;;;;;;;;;12988070;19;20349;-61
2023/04/24 18:21:48;;;;;;;25.23;14.40;;;;;;;;;;12987599;19;20033;-62
2023/04/24 18:26:06;;;;;;;16.90;10.93;;;;;;;;;;12984494;19;20014;-62
2023/04/24 18:30:24;;;;;;;17.23;9.75;;;;;;;;;;12987163;19;20007;-62
2023/04/24 18:34:42;;;;;;;19.65;12.15;;;;;;;;;;12986057;19;20014;-62
2023/04/24 18:39:00;;;;;;;33.90;17.88;;;;;;;;;;12985581;19;20025;-62
2023/04/24 18:43:17;;;;;;;48.47;22.83;;;;;;;;;;12984329;19;20017;-61
2023/04/24 18:47:35;;;;;;;31.55;17.17;;;;;;;;;;12966668;19;20014;-61
2023/04/24 18:51:56;;;;;;;19.63;10.18;;;;;;;;;;12985153;19;20021;-61
2023/04/24 18:56:18;;;;;;;11.27;4.22;;;;;;;;;;12985506;19;20018;-62
2023/04/24 19:00:37;;;;;;;9.00;3.50;;;;;;;;;;12984500;19;20484;-62
2023/04/24 19:04:54;;;;;;;12.60;6.40;;;;;;;;;;12984125;19;20031;-61
2023/04/24 19:09:12;;;;;;;9.23;4.28;;;;;;;;;;12983559;19;20021;-61
2023/04/24 19:13:30;;;;;;;10.85;7.32;;;;;;;;;;12983603;19;20326;-61
2023/04/24 19:17:49;;;;;;;6.03;3.97;;;;;;;;;;12959631;19;20574;-61
2023/04/24 19:22:07;;;;;;;9.45;5.53;;;;;;;;;;12958929;19;20017;-61
2023/04/24 19:26:30;;;;;;;13.77;9.65;;;;;;;;;;12962337;19;20067;-61
2023/04/24 19:30:48;;;;;;;16.30;9.55;;;;;;;;;;12981898;19;20038;-61
2023/04/24 19:35:07;;;;;;;13.68;8.52;;;;;;;;;;12981960;19;20014;-61
2023/04/24 19:39:25;;;;;;;14.02;8.85;;;;;;;;;;12981347;19;20025;-61
2023/04/24 19:43:42;;;;;;;12.77;7.15;;;;;;;;;;12982273;19;20359;-61
2023/04/24 19:48:00;;;;;;;22.05;12.43;;;;;;;;;;12982516;19;20024;-61
2023/04/24 19:52:18;;;;;;;26.85;12.75;;;;;;;;;;12960103;19;20116;-61
2023/04/24 19:56:37;;;;;;;23.50;12.15;;;;;;;;;;12981915;19;20494;-61
2023/04/24 20:00:55;;;;;;;15.93;9.40;;;;;;;;;;12982465;19;20025;-61
2023/04/24 20:05:13;;;;;;;13.75;7.40;;;;;;;;;;12978350;19;20027;-61
2023/04/24 20:09:31;;;;;;;11.18;6.65;;;;;;;;;;12980278;19;20014;-61
2023/04/24 20:13:49;;;;;;;9.05;5.32;;;;;;;;;;12980274;19;20474;-61
2023/04/24 20:18:07;;;;;;;11.75;6.00;;;;;;;;;;12979280;19;20014;-61
2023/04/24 20:22:25;;;;;;;9.30;5.90;;;;;;;;;;12979989;19;20006;-61
2023/04/24 20:26:42;;;;;;;8.93;5.85;;;;;;;;;;12977322;19;20014;-61
2023/04/24 20:31:03;;;;;;;14.32;7.60;;;;;;;;;;12984022;19;20838;-61
2023/04/24 20:35:24;;;;;;;9.20;5.50;;;;;;;;;;12991615;19;20440;-61
2023/04/24 20:39:43;;;;;;;11.15;5.90;;;;;;;;;;12991656;19;20022;-61
2023/04/24 20:44:01;;;;;;;15.07;6.95;;;;;;;;;;12971061;19;20010;-61
2023/04/24 20:48:20;;;;;;;10.48;5.60;;;;;;;;;;12990484;19;20350;-62
2023/04/24 20:52:38;;;;;;;10.30;5.47;;;;;;;;;;12988596;19;20097;-61
2023/04/24 20:56:58;;;;;;;10.80;5.38;;;;;;;;;;12991585;19;20025;-61
2023/04/24 21:01:16;;;;;;;9.35;5.55;;;;;;;;;;12990668;19;20109;-61
2023/04/24 21:05:34;;;;;;;9.82;5.75;;;;;;;;;;12990139;19;20015;-61
2023/04/24 21:09:52;;;;;;;;;;;;;;;;;;12990642;19;20019;-62
2023/04/24 21:14:13;;;;;;;8.23;4.90;;;;;;;;;;12987128;19;20382;-61
2023/04/24 21:18:30;;;;;;;11.30;5.55;;;;;;;;;;12989965;19;20522;-61
2023/04/24 21:22:48;;;;;;;10.75;5.53;;;;;;;;;;12945685;19;20656;-62
2023/04/24 21:27:09;;;;;;;;;;;;;;;;;;12988792;19;20026;-64
2023/04/24 21:31:26;;;;;;;18.35;8.98;;;;;;;;;;12989429;19;20342;-64
2023/04/24 21:35:44;;;;;;;13.27;7.70;;;;;;;;;;12988878;19;20025;-64
2023/04/24 21:40:05;;;;;;;10.25;6.35;;;;;;;;;;12986658;19;20027;-64
2023/04/24 21:44:23;;;;;;;15.00;8.48;;;;;;;;;;12987228;19;20033;-64
2023/04/24 21:48:44;;;;;;;15.80;7.90;;;;;;;;;;12966439;19;20014;-64
2023/04/24 21:53:02;;;;;;;16.50;7.78;;;;;;;;;;12986752;19;20360;-65
2023/04/24 21:57:21;;;;;;;19.17;9.93;;;;;;;;;;12988002;19;20104;-66
2023/04/24 22:01:38;;;;;;;14.50;8.63;;;;;;;;;;12987963;19;20465;-66
2023/04/24 22:05:58;;;;;;;16.83;8.43;;;;;;;;;;12987934;19;20014;-67
2023/04/24 22:10:16;;;;;;;14.18;7.57;;;;;;;;;;12986967;19;20068;-66
2023/04/24 22:14:34;;;;;;;15.77;7.10;;;;;;;;;;12986627;19;20018;-66
2023/04/24 22:18:52;;;;;;;10.63;6.93;;;;;;;;;;12986949;19;20245;-67
2023/04/24 22:23:10;;;;;;;16.33;7.35;;;;;;;;;;12985741;19;20466;-69
2023/04/24 22:27:28;;;;;;;10.80;6.97;;;;;;;;;;12987953;19;20607;-69
2023/04/24 22:31:45;;;;;;;10.13;6.75;;;;;;;;;;12986691;19;20023;-67
2023/04/24 22:36:04;;;;;;;6.43;4.13;;;;;;;;;;12985979;19;20499;-67
2023/04/24 22:40:22;;;;;;;;;;;;;;;;;;12985627;19;20022;-66
2023/04/24 22:44:40;;;;;;;3.75;2.22;;;;;;;;;;12986014;19;19923;-66
2023/04/24 22:48:57;;;;;;;;;;;;;;;;;;12985773;19;20519;-66
2023/04/24 22:53:15;;;;;;;;;;;;;;;;;;12985107;19;20318;-66
2023/04/24 22:57:33;;;;;;;3.88;1.60;;;;;;;;;;12985263;19;20256;-66
2023/04/24 23:01:51;;;;;;;2.28;1.40;;;;;;;;;;12984827;19;20403;-66
2023/04/24 23:06:09;;;;;;;0.77;0.70;;;;;;;;;;12984133;19;20014;-66
2023/04/24 23:10:27;;;;;;;1.15;0.80;;;;;;;;;;12985697;19;20124;-66
2023/04/24 23:14:45;;;;;;;0.95;0.85;;;;;;;;;;12984413;19;20021;-66
2023/04/24 23:19:03;;;;;;;1.92;1.27;;;;;;;;;;12983665;19;20018;-66
2023/04/24 23:23:21;;;;;;;1.17;1.00;;;;;;;;;;12983761;19;20058;-66
2023/04/24 23:27:39;;;;;;;1.55;1.00;;;;;;;;;;12983188;19;20022;-66
2023/04/24 23:32:00;;;;;;;1.88;0.70;;;;;;;;;;12983021;19;20021;-66
2023/04/24 23:36:18;;;;;;;0.93;0.80;;;;;;;;;;12983290;19;20038;-66
2023/04/24 23:40:36;;;;;;;1.48;1.00;;;;;;;;;;12980427;19;20461;-66
2023/04/24 23:44:54;;;;;;;3.42;1.15;;;;;;;;;;12981297;19;20353;-66
2023/04/24 23:49:11;;;;;;;1.38;0.93;;;;;;;;;;12982421;19;20048;-66
2023/04/24 23:53:29;;;;;;;1.27;0.70;;;;;;;;;;12982988;19;20013;-66
2023/04/24 23:57:47;;;;;;;1.05;0.80;;;;;;;;;;12981723;19;20011;-66
